createdAt,value
2019-03-06T00:04:19.179Z,99837.14
2019-03-06T00:09:23.102Z,99836.14
2019-03-06T00:14:26.646Z,99846.09
2019-03-06T00:19:30.391Z,99844.18
2019-03-06T00:24:33.952Z,99862.69
2019-03-06T00:29:37.807Z,99869.09
2019-03-06T00:34:41.350Z,99869.11
2019-03-06T00:39:46.627Z,99870.87
2019-03-06T00:44:50.201Z,99873.33
2019-03-06T00:49:53.813Z,99873.82
2019-03-06T00:54:57.400Z,99879.33
2019-03-06T01:00:01.977Z,99878.35
2019-03-06T01:05:07.967Z,99874.20
2019-03-06T01:10:13.094Z,99883.55
2019-03-06T01:15:17.864Z,99885.38
2019-03-06T01:20:21.430Z,99896.27
2019-03-06T01:25:25.463Z,99897.62
2019-03-06T01:30:29.034Z,99901.75
2019-03-06T01:35:34.160Z,99904.34
2019-03-06T01:40:45.307Z,99904.94
2019-03-06T01:45:48.844Z,99904.59
2019-03-06T01:50:52.447Z,99913.38
2019-03-06T01:55:56.043Z,99917.12
2019-03-06T02:01:01.594Z,99919.70
2019-03-06T02:06:05.542Z,99925.19
2019-03-06T02:11:09.161Z,99934.23
2019-03-06T02:16:12.723Z,99936.84
2019-03-06T02:21:16.664Z,99944.23
2019-03-06T02:26:20.208Z,99947.77
2019-03-06T02:31:23.826Z,99954.17
2019-03-06T02:36:27.372Z,99954.30
2019-03-06T02:41:30.943Z,99964.50
2019-03-06T02:46:34.490Z,99962.75
2019-03-06T02:51:38.090Z,99968.98
2019-03-06T02:56:41.611Z,99975.74
2019-03-06T03:01:53.525Z,99992.53
2019-03-06T03:07:04.668Z,99998.76
2019-03-06T03:12:08.533Z,100003.35
2019-03-06T03:17:12.057Z,100009.53
2019-03-06T03:22:15.605Z,100013.31
2019-03-06T03:27:19.150Z,100022.15
2019-03-06T03:32:22.727Z,100025.11
2019-03-06T03:37:26.290Z,100027.37
2019-03-06T03:42:29.825Z,100023.98
2019-03-06T03:47:33.397Z,100027.16
2019-03-06T03:52:36.922Z,100033.22
2019-03-06T03:57:40.502Z,100045.97
2019-03-06T04:02:44.387Z,100051.86
2019-03-06T04:07:48.301Z,100064.67
2019-03-06T04:12:51.855Z,100069.47
2019-03-06T04:17:55.848Z,100060.97
2019-03-06T04:22:59.402Z,100075.92
2019-03-06T04:28:02.984Z,100067.03
2019-03-06T04:33:06.523Z,100071.96
2019-03-06T04:38:10.099Z,100085.63
2019-03-06T04:43:13.679Z,100093.65
2019-03-06T04:48:17.233Z,100093.09
2019-03-06T04:53:20.790Z,100095.05
2019-03-06T04:58:26.258Z,100101.66
2019-03-06T05:03:29.660Z,100104.31
2019-03-06T05:08:33.227Z,100107.63
2019-03-06T05:13:36.799Z,100115.53
2019-03-06T05:18:41.916Z,100117.66
2019-03-06T05:23:45.521Z,100113.91
2019-03-06T05:28:49.074Z,100104.38
2019-03-06T05:33:52.628Z,100114.72
2019-03-06T05:39:09.615Z,100117.70
2019-03-06T05:44:13.169Z,100126.38
2019-03-06T05:49:16.757Z,100136.59
2019-03-06T05:54:20.358Z,100141.13
2019-03-06T05:59:23.904Z,100133.99
2019-03-06T06:04:27.451Z,100133.42
2019-03-06T06:09:31.003Z,100136.85
2019-03-06T06:14:34.550Z,100128.00
2019-03-06T06:19:38.129Z,100130.75
2019-03-06T06:24:43.144Z,100134.52
2019-03-06T06:29:46.788Z,100135.69
2019-03-06T06:34:50.347Z,100144.71
2019-03-06T06:39:53.912Z,100146.23
2019-03-06T06:44:57.452Z,100142.84
2019-03-06T06:50:01.041Z,100138.56
2019-03-06T06:55:23.491Z,100146.36
2019-03-06T07:00:52.208Z,100149.42
2019-03-06T07:05:57.353Z,100152.13
2019-03-06T07:11:08.450Z,100158.20
2019-03-06T07:16:25.458Z,100164.79
2019-03-06T07:21:30.644Z,100158.77
2019-03-06T07:26:38.852Z,100164.95
2019-03-06T07:31:43.975Z,100160.09
2019-03-06T07:36:58.147Z,100166.70
2019-03-06T07:42:03.242Z,100173.47
2019-03-06T07:47:11.339Z,100183.86
2019-03-06T07:52:33.368Z,100206.15
2019-03-06T07:57:57.859Z,100214.97
2019-03-06T08:03:06.310Z,100198.80
2019-03-06T08:08:09.912Z,100182.75
2019-03-06T08:13:16.051Z,100175.42
2019-03-06T08:18:21.130Z,100176.23
2019-03-06T08:23:38.258Z,100177.03
2019-03-06T08:28:41.821Z,100194.09
2019-03-06T08:33:45.605Z,100184.65
2019-03-06T08:38:49.143Z,100188.23
2019-03-06T08:43:52.998Z,100181.38
2019-03-06T08:48:58.117Z,100178.94
2019-03-06T08:54:06.442Z,100174.17
2019-03-06T08:59:27.717Z,100181.41
2019-03-06T09:04:32.845Z,100178.22
2019-03-06T09:09:37.982Z,100175.94
2019-03-06T09:14:55.149Z,100189.77
2019-03-06T09:20:00.519Z,100168.00
2019-03-06T09:25:08.407Z,100166.90
2019-03-06T09:30:16.245Z,100168.09
2019-03-06T09:35:23.659Z,100168.34
2019-03-06T09:40:43.694Z,100171.11
2019-03-06T09:45:54.925Z,100175.06
2019-03-06T09:51:16.311Z,100181.16
2019-03-06T09:56:24.562Z,100174.96
2019-03-06T10:01:41.580Z,100174.94
2019-03-06T10:06:52.573Z,100174.61
2019-03-06T10:11:57.689Z,100168.69
2019-03-06T10:17:17.981Z,100166.64
2019-03-06T10:22:21.534Z,100164.09
2019-03-06T10:27:25.117Z,100156.39
2019-03-06T10:32:28.687Z,100160.17
2019-03-06T10:37:32.236Z,100153.69
2019-03-06T10:42:35.816Z,100137.01
2019-03-06T10:47:39.442Z,100129.67
2019-03-06T10:52:43.026Z,100124.93
2019-03-06T10:57:46.581Z,100121.47
2019-03-06T11:02:50.133Z,100103.08
2019-03-06T11:07:54.324Z,100105.23
2019-03-06T11:12:57.899Z,100108.42
2019-03-06T11:18:01.495Z,100108.48
2019-03-06T11:23:11.684Z,100104.25
2019-03-06T11:28:15.225Z,100097.13
2019-03-06T11:33:19.369Z,100103.35
2019-03-06T11:38:23.030Z,100109.11
2019-03-06T11:43:26.588Z,100099.62
2019-03-06T11:48:30.142Z,100091.39
2019-03-06T11:53:33.696Z,100078.88
2019-03-06T11:58:37.247Z,100076.47
2019-03-06T12:03:40.951Z,100053.02
2019-03-06T12:08:45.767Z,100059.80
2019-03-06T12:13:49.703Z,100052.68
2019-03-06T12:18:53.265Z,100063.61
2019-03-06T12:23:57.025Z,100029.05
2019-03-06T12:29:00.737Z,100031.56
2019-03-06T12:34:05.211Z,100028.52
2019-03-06T12:39:08.763Z,100023.76
2019-03-06T12:44:12.389Z,100012.65
2019-03-06T12:49:15.963Z,100006.81
2019-03-06T12:54:19.545Z,99993.92
2019-03-06T12:59:23.079Z,99988.40
2019-03-06T13:04:26.682Z,99973.85
2019-03-06T13:09:30.239Z,99958.95
2019-03-06T13:14:33.861Z,99956.70
2019-03-06T13:19:37.418Z,99935.74
2019-03-06T13:24:40.959Z,99925.37
2019-03-06T13:29:45.567Z,99911.99
2019-03-06T13:34:50.983Z,99892.41
2019-03-06T13:39:54.630Z,99896.46
2019-03-06T13:44:58.195Z,99877.83
2019-03-06T13:50:01.778Z,99864.31
2019-03-06T13:55:16.292Z,99857.94
2019-03-06T14:00:20.879Z,99862.52
2019-03-06T14:05:24.727Z,99858.80
2019-03-06T14:10:29.671Z,99852.50
2019-03-06T14:15:33.271Z,99845.40
2019-03-06T14:20:36.848Z,99842.35
2019-03-06T14:25:40.455Z,99819.11
2019-03-06T14:30:44.241Z,99819.11
2019-03-06T14:35:47.809Z,99819.03
2019-03-06T14:40:51.352Z,99813.72
2019-03-06T14:45:55.137Z,99800.36
2019-03-06T14:50:58.969Z,99783.78
2019-03-06T14:56:02.502Z,99777.64
2019-03-06T15:01:06.065Z,99767.66
2019-03-06T15:06:09.628Z,99758.28
2019-03-06T15:11:13.223Z,99763.35
2019-03-06T15:16:16.780Z,99759.14
2019-03-06T15:21:20.361Z,99759.19
2019-03-06T15:26:23.887Z,99747.88
2019-03-06T15:31:27.448Z,99749.00
2019-03-06T15:36:32.698Z,99751.26
2019-03-06T15:41:36.343Z,99746.44
2019-03-06T15:46:39.934Z,99741.67
2019-03-06T15:51:43.486Z,99724.80
2019-03-06T15:56:47.158Z,99713.89
2019-03-06T16:01:50.700Z,99712.22
2019-03-06T16:06:54.417Z,99713.70
2019-03-06T16:11:58.047Z,99706.31
2019-03-06T16:17:01.583Z,99706.92
2019-03-06T16:22:05.124Z,99700.34
2019-03-06T16:27:08.769Z,99688.68
2019-03-06T16:32:12.299Z,99680.96
2019-03-06T16:37:15.866Z,99667.34
2019-03-06T16:42:19.434Z,99672.19
2019-03-06T16:47:23.003Z,99667.50
2019-03-06T16:52:26.526Z,99657.23
2019-03-06T16:57:30.132Z,99658.37
2019-03-06T17:02:34.344Z,99656.38
2019-03-06T17:07:38.464Z,99655.92
2019-03-06T17:12:42.704Z,99649.46
2019-03-06T17:17:47.016Z,99659.80
2019-03-06T17:22:51.377Z,99647.36
2019-03-06T17:27:55.414Z,99648.63
2019-03-06T17:33:10.353Z,99641.92
2019-03-06T17:38:15.696Z,99628.25
2019-03-06T17:43:19.949Z,99619.69
2019-03-06T17:48:24.087Z,99610.97
2019-03-06T17:53:28.158Z,99597.72
2019-03-06T17:58:32.221Z,99597.02
2019-03-06T18:03:40.494Z,99587.39
2019-03-06T18:08:44.631Z,99577.48
2019-03-06T18:13:48.710Z,99574.30
2019-03-06T18:18:52.914Z,99574.89
2019-03-06T18:23:57.878Z,99564.17
2019-03-06T18:29:01.974Z,99557.28
2019-03-06T18:34:06.309Z,99547.94
2019-03-06T18:39:12.081Z,99536.52
2019-03-06T18:44:16.292Z,99539.19
2019-03-06T18:49:20.647Z,99539.44
2019-03-06T18:54:24.494Z,99540.25
2019-03-06T18:59:28.631Z,99539.69
2019-03-06T19:04:32.861Z,99517.94
2019-03-06T19:09:37.071Z,99513.79
2019-03-06T19:14:42.489Z,99505.53
2019-03-06T19:19:46.878Z,99493.34
2019-03-06T19:24:51.053Z,99495.98
2019-03-06T19:29:55.279Z,99500.61
2019-03-06T19:34:59.844Z,99507.20
2019-03-06T19:40:04.513Z,99484.80
2019-03-06T19:45:22.783Z,99467.17
2019-03-06T19:50:27.512Z,99462.95
2019-03-06T19:55:31.711Z,99454.74
2019-03-06T20:00:35.949Z,99440.34
2019-03-06T20:05:40.782Z,99438.17
2019-03-06T20:10:45.515Z,99430.48
2019-03-06T20:15:49.701Z,99435.34
2019-03-06T20:20:53.932Z,99430.95
2019-03-06T20:25:58.245Z,99423.42
2019-03-06T20:31:02.431Z,99426.60
2019-03-06T20:36:06.990Z,99428.52
2019-03-06T20:41:11.137Z,99415.54
2019-03-06T20:46:16.489Z,99407.33
2019-03-06T20:51:20.601Z,99407.86
2019-03-06T20:56:24.594Z,99395.79
2019-03-06T21:01:31.616Z,99391.16
2019-03-06T21:06:36.474Z,99390.84
2019-03-06T21:11:40.643Z,99378.00
2019-03-06T21:16:44.687Z,99377.14
2019-03-06T21:21:48.914Z,99366.17
2019-03-06T21:26:53.103Z,99359.92
2019-03-06T21:31:57.546Z,99342.69
2019-03-06T21:37:01.687Z,99333.91
2019-03-06T21:42:05.936Z,99329.21
2019-03-06T21:47:10.010Z,99321.69
2019-03-06T21:52:13.967Z,99329.55
2019-03-06T21:57:17.905Z,99322.58
2019-03-06T22:02:22.053Z,99324.72
2019-03-06T22:07:26.077Z,99327.81
2019-03-06T22:12:29.820Z,99324.27
2019-03-06T22:17:33.939Z,99313.42
2019-03-06T22:22:37.919Z,99309.81
2019-03-06T22:27:41.734Z,99304.62
2019-03-06T22:32:45.495Z,99294.59
2019-03-06T22:37:49.367Z,99293.43
2019-03-06T22:42:53.325Z,99278.23
2019-03-06T22:47:57.122Z,99271.13
2019-03-06T22:53:00.901Z,99270.73
2019-03-06T22:58:05.114Z,99265.47
2019-03-06T23:03:08.925Z,99260.77
2019-03-06T23:08:12.654Z,99245.34
2019-03-06T23:13:16.420Z,99237.16
2019-03-06T23:18:20.345Z,99236.64
2019-03-06T23:23:24.276Z,99237.17
2019-03-06T23:28:28.014Z,99230.33
2019-03-06T23:33:31.932Z,99200.98
2019-03-06T23:38:35.836Z,99200.98
2019-03-06T23:43:39.578Z,99203.27
2019-03-06T23:48:43.377Z,99199.33
2019-03-06T23:53:48.744Z,99179.43
2019-03-06T23:58:52.525Z,99159.20
